Time;durP1;ratioP1;P1;durP2;ratioP2;P2;SDS_P1;SDS_P2;PMS_P1;PMS_P2;Temp;Humidity;BMP_temperature;BMP_pressure;BME280_temperature;BME280_humidity;BME280_pressure;Samples;Min_cycle;Max_cycle;Signal;HPM_P1;HPM_P2
2022/05/23 00:02:13;;;;;;;28.83;25.92;;;;;;;;;;10201121;29;20497;-87
2022/05/23 00:07:16;;;;;;;30.63;26.30;;;;;;;;;;10201636;29;20414;-86
2022/05/23 00:12:18;;;;;;;28.33;25.27;;;;;;;;;;10200093;29;20429;-87
2022/05/23 00:17:22;;;;;;;29.35;26.35;;;;;;;;;;10201677;29;20916;-87
2022/05/23 00:22:24;;;;;;;28.33;25.43;;;;;;;;;;10200997;29;20494;-87
2022/05/23 00:27:26;;;;;;;27.30;24.60;;;;;;;;;;10198473;29;20421;-88
2022/05/23 00:37:51;;;;;;;26.27;23.70;;;;;;;;;;10200954;29;20430;-87
2022/05/23 00:43:15;;;;;;;25.73;23.33;;;;;;;;;;10200272;29;20505;-87
2022/05/23 00:48:21;;;;;;;26.40;23.65;;;;;;;;;;10201152;29;20405;-87
2022/05/23 00:53:28;;;;;;;27.95;25.08;;;;;;;;;;10198819;29;20895;-87
2022/05/23 00:58:36;;;;;;;28.90;26.10;;;;;;;;;;10197031;29;20842;-87
2022/05/23 01:03:40;;;;;;;30.20;27.05;;;;;;;;;;10200679;29;20433;-87
2022/05/23 01:08:42;;;;;;;28.20;25.20;;;;;;;;;;10198595;29;20423;-87
2022/05/23 01:13:44;;;;;;;27.25;24.48;;;;;;;;;;10199979;29;20790;-87
2022/05/23 01:18:48;;;;;;;29.90;26.67;;;;;;;;;;10200326;29;20410;-87
2022/05/23 01:23:53;;;;;;;29.77;26.88;;;;;;;;;;10199072;29;20425;-88
2022/05/23 01:28:56;;;;;;;29.77;25.93;;;;;;;;;;10199780;29;20906;-88
2022/05/23 01:33:58;;;;;;;27.73;24.83;;;;;;;;;;10199903;29;20433;-87
2022/05/23 01:39:00;;;;;;;26.30;23.58;;;;;;;;;;10194282;29;20842;-87
2022/05/23 01:44:04;;;;;;;25.47;22.97;;;;;;;;;;10199573;29;20500;-87
2022/05/23 01:49:06;;;;;;;26.13;23.65;;;;;;;;;;10199657;29;20803;-87
2022/05/23 01:54:08;;;;;;;25.43;22.73;;;;;;;;;;10193820;29;20425;-87
2022/05/23 02:04:31;;;;;;;24.30;21.90;;;;;;;;;;10201419;29;20721;-87
2022/05/23 02:09:32;;;;;;;24.08;21.60;;;;;;;;;;10207413;29;20851;-86
2022/05/23 02:14:36;;;;;;;23.77;21.38;;;;;;;;;;10208001;29;20433;-87
2022/05/23 02:19:39;;;;;;;24.25;21.75;;;;;;;;;;10207928;29;20414;-87
2022/05/23 02:24:40;;;;;;;23.70;21.40;;;;;;;;;;10189025;29;20429;-86
2022/05/23 02:29:44;;;;;;;24.20;21.70;;;;;;;;;;10204980;29;20496;-87
2022/05/23 02:34:46;;;;;;;24.40;21.87;;;;;;;;;;10206327;29;20790;-86
2022/05/23 02:39:48;;;;;;;25.27;22.67;;;;;;;;;;10204799;29;20482;-88
2022/05/23 02:44:51;;;;;;;24.92;22.27;;;;;;;;;;10202090;29;20409;-87
2022/05/23 02:49:54;;;;;;;24.08;21.55;;;;;;;;;;10206464;29;20406;-87
2022/05/23 02:54:55;;;;;;;24.37;22.07;;;;;;;;;;10181174;29;20517;-88
2022/05/23 02:59:59;;;;;;;25.20;22.53;;;;;;;;;;10195561;29;20500;-87
2022/05/23 03:05:01;;;;;;;25.60;22.95;;;;;;;;;;10206057;29;20410;-88
2022/05/23 03:10:04;;;;;;;24.65;22.13;;;;;;;;;;10204074;29;20430;-87
2022/05/23 03:15:10;;;;;;;25.43;22.83;;;;;;;;;;10204932;29;20814;-87
2022/05/23 03:20:13;;;;;;;25.57;22.87;;;;;;;;;;10205394;29;20894;-87
2022/05/23 03:30:36;;;;;;;26.35;23.52;;;;;;;;;;10205796;29;20477;-87
2022/05/23 03:35:37;;;;;;;26.40;23.70;;;;;;;;;;10204848;29;20525;-88
2022/05/23 03:40:40;;;;;;;27.55;24.75;;;;;;;;;;10202916;29;20501;-88
2022/05/23 03:45:44;;;;;;;27.63;24.67;;;;;;;;;;10204266;29;20417;-88
2022/05/23 03:50:46;;;;;;;27.43;24.60;;;;;;;;;;10204654;29;20430;-87
2022/05/23 03:55:50;;;;;;;27.90;24.93;;;;;;;;;;10186992;29;20528;-88
2022/05/23 04:01:04;;;;;;;27.70;24.75;;;;;;;;;;10203780;29;20416;-88
2022/05/23 04:06:07;;;;;;;27.88;25.02;;;;;;;;;;10190964;29;20436;-87
2022/05/23 04:11:09;;;;;;;29.67;25.30;;;;;;;;;;10199992;29;20413;-87
2022/05/23 04:16:12;;;;;;;27.25;24.30;;;;;;;;;;10202036;29;20426;-87
2022/05/23 04:21:14;;;;;;;27.35;24.55;;;;;;;;;;10200713;29;20414;-88
2022/05/23 04:26:16;;;;;;;27.13;24.42;;;;;;;;;;10200221;29;20420;-87
2022/05/23 04:31:19;;;;;;;26.48;23.77;;;;;;;;;;10201951;29;20432;-87
2022/05/23 04:36:21;;;;;;;27.52;24.77;;;;;;;;;;10200873;29;20440;-88
2022/05/23 04:41:23;;;;;;;27.67;24.88;;;;;;;;;;10200057;29;20496;-88
2022/05/23 04:46:27;;;;;;;28.47;25.57;;;;;;;;;;10200649;29;20778;-88
2022/05/23 04:51:28;;;;;;;28.00;25.20;;;;;;;;;;10199978;29;20425;-88
2022/05/23 04:56:30;;;;;;;28.30;25.25;;;;;;;;;;10199158;29;20436;-87
2022/05/23 05:01:33;;;;;;;28.48;25.48;;;;;;;;;;10201044;29;20420;-87
2022/05/23 05:06:35;;;;;;;26.73;23.87;;;;;;;;;;10200654;29;20410;-87
2022/05/23 05:11:38;;;;;;;27.50;24.70;;;;;;;;;;10199359;29;20851;-87
2022/05/23 05:16:41;;;;;;;28.07;25.07;;;;;;;;;;10197031;29;20429;-86
2022/05/23 05:21:43;;;;;;;27.08;24.15;;;;;;;;;;10197358;29;20422;-87
2022/05/23 05:26:44;;;;;;;25.92;23.25;;;;;;;;;;10190123;29;20504;-88
2022/05/23 05:31:52;;;;;;;26.27;23.45;;;;;;;;;;10195283;29;20433;-84
2022/05/23 05:36:59;;;;;;;25.67;23.10;;;;;;;;;;10193464;29;20918;-87
2022/05/23 05:42:05;;;;;;;26.17;23.08;;;;;;;;;;10199406;29;20878;-86
2022/05/23 05:47:12;;;;;;;24.30;21.70;;;;;;;;;;10202170;29;20413;-88
2022/05/23 05:52:15;;;;;;;24.47;21.80;;;;;;;;;;10196302;29;20512;-86
2022/05/23 05:57:17;;;;;;;24.30;21.70;;;;;;;;;;10201733;29;20444;-83
2022/05/23 06:02:20;;;;;;;23.83;21.33;;;;;;;;;;10203785;29;20420;-87
2022/05/23 06:12:43;;;;;;;22.10;19.50;;;;;;;;;;10204915;29;20476;-85
2022/05/23 06:17:47;;;;;;;21.30;19.20;;;;;;;;;;10209055;29;20512;-87
2022/05/23 06:22:50;;;;;;;21.83;19.40;;;;;;;;;;10209244;29;20513;-86
2022/05/23 06:27:51;;;;;;;21.95;19.63;;;;;;;;;;10246013;29;20484;-86
2022/05/23 06:32:55;;;;;;;22.42;20.17;;;;;;;;;;10223056;29;20425;-86
2022/05/23 06:37:56;;;;;;;22.70;20.40;;;;;;;;;;10234081;29;20413;-88
2022/05/23 06:42:58;;;;;;;24.65;20.98;;;;;;;;;;10233652;29;20460;-86
2022/05/23 06:48:02;;;;;;;24.17;21.77;;;;;;;;;;10208147;29;20937;-86
2022/05/23 06:53:03;;;;;;;24.73;22.10;;;;;;;;;;10206099;29;20417;-86
2022/05/23 06:58:06;;;;;;;23.95;21.50;;;;;;;;;;10204658;29;20434;-86
2022/05/23 07:03:10;;;;;;;24.33;21.83;;;;;;;;;;10206594;29;20414;-85
2022/05/23 07:13:31;;;;;;;21.05;18.85;;;;;;;;;;10201466;29;20433;-87
2022/05/23 07:18:34;;;;;;;20.98;18.65;;;;;;;;;;10204312;29;20540;-87
2022/05/23 07:23:36;;;;;;;19.95;17.65;;;;;;;;;;10202479;29;20508;-87
2022/05/23 07:28:38;;;;;;;20.17;17.77;;;;;;;;;;10204960;29;20426;-87
2022/05/23 07:33:41;;;;;;;17.52;15.60;;;;;;;;;;10204198;29;20496;-86
2022/05/23 07:38:43;;;;;;;17.75;15.98;;;;;;;;;;10202530;29;20446;-86
2022/05/23 07:43:45;;;;;;;19.10;17.10;;;;;;;;;;10203548;29;20511;-87
2022/05/23 07:48:51;;;;;;;18.02;16.13;;;;;;;;;;10204536;29;20508;-86
2022/05/23 08:04:33;;;;;;;20.05;16.50;;;;;;;;;;10201706;29;20394;-87
2022/05/23 08:09:35;;;;;;;20.07;16.13;;;;;;;;;;10188077;29;20432;-86
2022/05/23 08:14:37;;;;;;;16.57;14.73;;;;;;;;;;10203530;29;20440;-86
2022/05/23 08:19:40;;;;;;;15.20;13.60;;;;;;;;;;10203831;29;20440;-85
2022/05/23 08:24:42;;;;;;;15.13;13.57;;;;;;;;;;10203060;29;20496;-87
2022/05/23 08:29:45;;;;;;;13.38;11.98;;;;;;;;;;10199135;29;20788;-86
2022/05/23 08:34:48;;;;;;;13.05;11.75;;;;;;;;;;10146812;29;20428;-86
2022/05/23 08:39:50;;;;;;;11.95;10.73;;;;;;;;;;10153843;23;20427;-86
2022/05/23 08:45:01;;;;;;;12.43;10.00;;;;;;;;;;10099528;29;20812;-86
2022/05/23 08:50:13;;;;;;;12.47;10.80;;;;;;;;;;10098715;29;20430;-86
2022/05/23 08:55:20;;;;;;;15.38;10.98;;;;;;;;;;10097913;29;22001;-86
2022/05/23 09:00:26;;;;;;;13.43;10.85;;;;;;;;;;10098638;29;20423;-86
2022/05/23 09:05:33;;;;;;;13.37;11.07;;;;;;;;;;10154640;29;20480;-86
2022/05/23 09:10:41;;;;;;;14.13;11.48;;;;;;;;;;10160689;29;20935;-86
2022/05/23 09:15:44;;;;;;;13.57;10.70;;;;;;;;;;10143637;29;20432;-86
2022/05/23 09:20:50;;;;;;;15.48;11.85;;;;;;;;;;10158451;29;20546;-86
2022/05/23 09:25:53;;;;;;;15.18;13.48;;;;;;;;;;10162645;29;20419;-86
2022/05/23 09:30:59;;;;;;;13.20;11.87;;;;;;;;;;10161787;29;20426;-86
2022/05/23 09:36:18;;;;;;;13.65;12.13;;;;;;;;;;10162328;29;20431;-86
2022/05/23 09:52:27;;;;;;;12.38;10.90;;;;;;;;;;10157849;29;20472;-88
2022/05/23 09:57:39;;;;;;;11.98;10.75;;;;;;;;;;10160379;29;20777;-89
2022/05/23 10:02:48;;;;;;;11.07;9.97;;;;;;;;;;10151572;29;20450;-86
2022/05/23 10:07:53;;;;;;;11.07;9.63;;;;;;;;;;10146979;29;20560;-86
2022/05/23 10:13:23;;;;;;;11.63;10.43;;;;;;;;;;10154019;29;20853;-87
2022/05/23 10:18:27;;;;;;;12.10;10.63;;;;;;;;;;10142294;29;21091;-87
2022/05/23 10:23:33;;;;;;;15.93;12.07;;;;;;;;;;10161262;29;20431;-86
2022/05/23 10:28:39;;;;;;;13.90;11.15;;;;;;;;;;10155178;29;20419;-90
2022/05/23 10:33:44;;;;;;;12.40;11.05;;;;;;;;;;10167897;29;20422;-86
2022/05/23 10:44:21;;;;;;;11.90;10.70;;;;;;;;;;10147698;29;21055;-86
2022/05/23 10:49:31;;;;;;;11.27;9.70;;;;;;;;;;10161063;29;20419;-84
2022/05/23 10:54:47;;;;;;;11.60;10.40;;;;;;;;;;10161673;29;20975;-86
2022/05/23 10:59:53;;;;;;;13.63;10.52;;;;;;;;;;10156092;29;20427;-86
2022/05/23 11:05:05;;;;;;;13.93;12.40;;;;;;;;;;10165422;29;20431;-84
2022/05/23 11:10:17;;;;;;;13.85;11.65;;;;;;;;;;10164908;29;20857;-84
2022/05/23 11:15:32;;;;;;;11.75;10.55;;;;;;;;;;10148325;29;20417;-85
2022/05/23 11:20:36;;;;;;;12.43;11.32;;;;;;;;;;10149007;29;20773;-83
2022/05/23 11:25:44;;;;;;;13.00;11.80;;;;;;;;;;10150835;29;20852;-83
2022/05/23 11:36:23;;;;;;;13.45;10.65;;;;;;;;;;10134539;29;20956;-85
2022/05/23 11:41:35;;;;;;;32.97;12.20;;;;;;;;;;10138536;29;20428;-85
2022/05/23 11:47:09;;;;;;;15.98;11.95;;;;;;;;;;10140950;29;20431;-83
2022/05/23 11:52:32;;;;;;;13.20;11.80;;;;;;;;;;10139066;29;20428;-83
2022/05/23 11:57:38;;;;;;;11.93;10.73;;;;;;;;;;10141909;29;20542;-83
2022/05/23 12:03:00;;;;;;;13.77;10.80;;;;;;;;;;10141049;29;20427;-83
2022/05/23 12:08:26;;;;;;;11.98;10.77;;;;;;;;;;10148430;29;20418;-83
2022/05/23 12:13:58;;;;;;;12.73;11.43;;;;;;;;;;10158982;29;20785;-83
2022/05/23 12:19:18;;;;;;;11.93;10.73;;;;;;;;;;10155782;29;20436;-83
2022/05/23 12:24:29;;;;;;;12.30;11.05;;;;;;;;;;10158991;29;20415;-85
2022/05/23 12:29:35;;;;;;;12.80;11.63;;;;;;;;;;10155727;29;20506;-83
2022/05/23 12:34:42;;;;;;;12.63;11.32;;;;;;;;;;10160358;29;20422;-84
2022/05/23 12:39:55;;;;;;;12.52;10.68;;;;;;;;;;10159830;29;20518;-85
2022/05/23 12:45:19;;;;;;;12.25;11.05;;;;;;;;;;10156312;29;20430;-84
2022/05/23 12:50:31;;;;;;;12.60;11.30;;;;;;;;;;10157151;29;20417;-83
2022/05/23 12:55:44;;;;;;;13.38;12.07;;;;;;;;;;10156409;29;20491;-84
2022/05/23 13:00:53;;;;;;;13.40;11.83;;;;;;;;;;10159867;29;20419;-84
2022/05/23 13:06:00;;;;;;;13.52;12.13;;;;;;;;;;10158393;29;20449;-83
2022/05/23 13:11:06;;;;;;;14.00;11.43;;;;;;;;;;10157670;29;20530;-84
2022/05/23 13:16:24;;;;;;;13.98;11.93;;;;;;;;;;10158082;29;20431;-83
2022/05/23 13:26:57;;;;;;;15.98;13.65;;;;;;;;;;10156813;29;20415;-83
2022/05/23 13:32:02;;;;;;;13.63;12.25;;;;;;;;;;10159260;29;20429;-82
2022/05/23 13:37:06;;;;;;;13.77;12.25;;;;;;;;;;10160373;29;20518;-83
2022/05/23 13:42:19;;;;;;;14.93;12.50;;;;;;;;;;10159305;29;20423;-83
2022/05/23 13:47:28;;;;;;;13.45;11.77;;;;;;;;;;10160781;29;20411;-83
2022/05/23 13:52:35;;;;;;;12.80;11.60;;;;;;;;;;10158154;29;20422;-82
2022/05/23 13:57:44;;;;;;;15.63;11.50;;;;;;;;;;10158389;29;20529;-80
2022/05/23 14:02:54;;;;;;;12.25;11.02;;;;;;;;;;10164957;29;20419;-81
2022/05/23 14:07:57;;;;;;;12.00;10.05;;;;;;;;;;10166712;29;20418;-81
2022/05/23 14:13:01;;;;;;;12.30;11.18;;;;;;;;;;10167290;29;20431;-80
2022/05/23 14:18:13;;;;;;;17.40;9.85;;;;;;;;;;10165812;29;20431;-81
2022/05/23 14:23:29;;;;;;;10.70;9.53;;;;;;;;;;10158955;29;20441;-81
2022/05/23 14:28:49;;;;;;;11.38;10.05;;;;;;;;;;10166502;29;20884;-81
2022/05/23 14:33:59;;;;;;;12.52;10.45;;;;;;;;;;10164303;29;20770;-82
2022/05/23 14:39:03;;;;;;;12.13;10.77;;;;;;;;;;10157365;29;20438;-81
2022/05/23 14:44:08;;;;;;;11.93;10.60;;;;;;;;;;10146007;29;20417;-80
2022/05/23 14:49:29;;;;;;;13.00;9.90;;;;;;;;;;10149119;29;20425;-83
2022/05/23 15:05:13;;;;;;;11.38;10.00;;;;;;;;;;10142474;29;20413;-83
2022/05/23 15:10:15;;;;;;;11.37;10.17;;;;;;;;;;10147524;29;20499;-83
2022/05/23 15:15:19;;;;;;;11.68;9.48;;;;;;;;;;10149696;29;20432;-83
2022/05/23 15:20:23;;;;;;;11.73;9.33;;;;;;;;;;10141867;29;20803;-83
2022/05/23 15:25:25;;;;;;;12.43;9.53;;;;;;;;;;10157374;29;20432;-83
2022/05/23 15:30:30;;;;;;;11.73;9.20;;;;;;;;;;10158824;29;20431;-82
2022/05/23 15:35:33;;;;;;;12.55;9.65;;;;;;;;;;10146425;29;20904;-84
2022/05/23 15:40:37;;;;;;;9.67;8.77;;;;;;;;;;10146867;28;20952;-82
2022/05/23 15:45:44;;;;;;;8.95;8.05;;;;;;;;;;10149017;29;20423;-83
2022/05/23 15:50:47;;;;;;;11.10;8.50;;;;;;;;;;10159688;29;20507;-83
2022/05/23 15:55:52;;;;;;;9.32;8.32;;;;;;;;;;10139000;29;20476;-83
2022/05/23 16:00:54;;;;;;;10.20;8.18;;;;;;;;;;10136263;29;20461;-86
2022/05/23 16:05:57;;;;;;;8.82;7.80;;;;;;;;;;10128802;29;20429;-84
2022/05/23 16:11:03;;;;;;;10.40;7.90;;;;;;;;;;10132973;29;20918;-86
2022/05/23 16:16:09;;;;;;;9.30;7.95;;;;;;;;;;10140647;29;20546;-85
2022/05/23 16:21:12;;;;;;;9.23;7.50;;;;;;;;;;10140751;29;20520;-84
2022/05/23 16:26:14;;;;;;;11.40;7.43;;;;;;;;;;10137366;29;20890;-86
2022/05/23 16:31:16;;;;;;;8.50;7.50;;;;;;;;;;10132304;29;20430;-85
2022/05/23 16:36:38;;;;;;;8.03;6.60;;;;;;;;;;10131933;29;20419;-84
2022/05/23 16:41:42;;;;;;;10.77;6.80;;;;;;;;;;10136717;29;20483;-85
2022/05/23 16:46:44;;;;;;;11.03;6.23;;;;;;;;;;10135827;29;20512;-82
2022/05/23 16:51:47;;;;;;;7.60;5.80;;;;;;;;;;10137024;29;20451;-85
2022/05/23 16:56:49;;;;;;;6.97;5.53;;;;;;;;;;10153893;29;20435;-81
2022/05/23 17:01:51;;;;;;;8.65;5.20;;;;;;;;;;10157914;29;20423;-81
2022/05/23 17:06:54;;;;;;;7.57;5.30;;;;;;;;;;10155116;29;20423;-81
2022/05/23 17:11:56;;;;;;;6.45;5.00;;;;;;;;;;10153898;29;20427;-82
2022/05/23 17:16:57;;;;;;;6.97;4.60;;;;;;;;;;10153085;29;20800;-85
2022/05/23 17:22:04;;;;;;;7.20;4.45;;;;;;;;;;10157803;29;20419;-84
2022/05/23 17:27:06;;;;;;;17.37;4.73;;;;;;;;;;10156441;29;20958;-84
2022/05/23 17:32:08;;;;;;;7.47;4.47;;;;;;;;;;10157159;29;20593;-84
2022/05/23 17:37:11;;;;;;;6.80;4.30;;;;;;;;;;10158568;29;20423;-82
2022/05/23 17:42:13;;;;;;;6.70;3.90;;;;;;;;;;10163770;29;20427;-83
2022/05/23 17:47:15;;;;;;;5.53;3.70;;;;;;;;;;10161645;29;20418;-85
2022/05/23 17:52:18;;;;;;;8.05;4.30;;;;;;;;;;10162525;29;20441;-84
2022/05/23 17:57:20;;;;;;;8.65;4.05;;;;;;;;;;10154893;29;20974;-89
2022/05/23 18:02:24;;;;;;;9.70;5.15;;;;;;;;;;10141249;29;20447;-83
2022/05/23 18:07:30;;;;;;;6.57;4.10;;;;;;;;;;10158503;29;20972;-81
2022/05/23 18:12:32;;;;;;;8.85;3.85;;;;;;;;;;10164534;29;20424;-81
2022/05/23 18:22:55;;;;;;;8.13;4.03;;;;;;;;;;10139471;29;20408;-80
2022/05/23 18:27:56;;;;;;;7.13;4.30;;;;;;;;;;10145495;29;21476;-82
2022/05/23 18:32:58;;;;;;;6.10;4.00;;;;;;;;;;10140676;29;20770;-82
2022/05/23 18:38:01;;;;;;;7.90;4.43;;;;;;;;;;10146317;29;20440;-82
2022/05/23 18:43:04;;;;;;;8.70;4.73;;;;;;;;;;10148802;29;20739;-83
2022/05/23 18:53:27;;;;;;;5.03;4.53;;;;;;;;;;10141746;29;20412;-83
2022/05/23 18:58:28;;;;;;;6.68;4.90;;;;;;;;;;10146383;29;20437;-83
2022/05/23 19:03:30;;;;;;;7.57;5.10;;;;;;;;;;10142637;29;20424;-83
2022/05/23 19:08:33;;;;;;;7.00;5.10;;;;;;;;;;10137379;29;20542;-82
2022/05/23 19:13:35;;;;;;;7.27;5.93;;;;;;;;;;10138534;29;20435;-82
2022/05/23 19:18:37;;;;;;;9.67;6.00;;;;;;;;;;10136515;29;20445;-82
2022/05/23 19:23:41;;;;;;;8.67;5.73;;;;;;;;;;10146771;29;20422;-82
2022/05/23 19:28:43;;;;;;;9.20;7.30;;;;;;;;;;10153547;29;20423;-82
2022/05/23 19:33:45;;;;;;;11.50;7.73;;;;;;;;;;10148532;29;20845;-87
2022/05/23 19:38:48;;;;;;;11.17;7.40;;;;;;;;;;10152869;29;20755;-81
2022/05/23 19:43:50;;;;;;;9.75;6.55;;;;;;;;;;10135426;29;20416;-81
2022/05/23 19:48:52;;;;;;;9.77;6.32;;;;;;;;;;10144351;29;20419;-83
2022/05/23 19:53:55;;;;;;;8.13;6.03;;;;;;;;;;10144064;29;20423;-82
2022/05/23 19:58:57;;;;;;;9.20;7.35;;;;;;;;;;10144217;29;20466;-80
2022/05/23 20:09:19;;;;;;;12.47;7.57;;;;;;;;;;10143982;29;20492;-80
2022/05/23 20:15:21;;;;;;;12.98;8.40;;;;;;;;;;10134422;29;20414;-81
2022/05/23 20:19:45;;;;;;;11.95;8.38;;;;;;;;;;10128666;29;21880;-82
2022/05/23 20:24:48;;;;;;;12.15;8.80;;;;;;;;;;10134461;29;20511;-82
2022/05/23 20:29:50;;;;;;;12.38;9.43;;;;;;;;;;10131062;29;20427;-81
2022/05/23 20:34:52;;;;;;;12.10;9.43;;;;;;;;;;10132570;29;21005;-82
2022/05/23 20:39:56;;;;;;;13.35;9.55;;;;;;;;;;10138017;29;20443;-81
2022/05/23 20:44:59;;;;;;;10.65;8.95;;;;;;;;;;10131181;29;20435;-81
2022/05/23 20:50:01;;;;;;;11.77;9.37;;;;;;;;;;10131704;23;21086;-82
2022/05/23 20:55:06;;;;;;;10.97;9.00;;;;;;;;;;10115543;29;20429;-82
2022/05/23 21:00:09;;;;;;;12.67;9.50;;;;;;;;;;10115820;29;20448;-83
2022/05/23 21:05:11;;;;;;;12.77;10.15;;;;;;;;;;10113116;29;20429;-82
2022/05/23 21:10:16;;;;;;;11.27;10.07;;;;;;;;;;10113231;29;20440;-82
2022/05/23 21:15:20;;;;;;;15.83;11.00;;;;;;;;;;10114647;29;20489;-85
2022/05/23 21:20:22;;;;;;;16.07;11.53;;;;;;;;;;10114400;29;20498;-85
2022/05/23 21:25:25;;;;;;;16.02;11.75;;;;;;;;;;10115566;29;20413;-82
2022/05/23 21:30:29;;;;;;;15.23;11.32;;;;;;;;;;10116617;29;20500;-83
2022/05/23 21:35:31;;;;;;;13.45;10.50;;;;;;;;;;10113459;29;20807;-81
2022/05/23 21:51:13;;;;;;;11.25;9.60;;;;;;;;;;10115475;29;20799;-83
2022/05/23 21:56:18;;;;;;;11.38;8.98;;;;;;;;;;10113774;29;20814;-85
2022/05/23 22:06:39;;;;;;;13.40;9.65;;;;;;;;;;10115234;29;20401;-85
2022/05/23 22:11:42;;;;;;;13.32;9.18;;;;;;;;;;10118941;29;20611;-85
2022/05/23 22:16:46;;;;;;;11.32;9.63;;;;;;;;;;10119482;29;20496;-83
2022/05/23 22:21:48;;;;;;;11.20;9.45;;;;;;;;;;10123447;29;20439;-85
2022/05/23 22:26:51;;;;;;;11.70;10.50;;;;;;;;;;10126331;29;20413;-85
2022/05/23 22:31:53;;;;;;;12.77;11.02;;;;;;;;;;10125965;29;20417;-85
2022/05/23 22:36:55;;;;;;;13.52;10.88;;;;;;;;;;10125881;29;20429;-86
2022/05/23 22:41:58;;;;;;;14.55;11.00;;;;;;;;;;10124810;29;20440;-86
2022/05/23 22:47:05;;;;;;;12.55;10.02;;;;;;;;;;10124728;29;20424;-83
2022/05/23 22:52:07;;;;;;;15.03;9.83;;;;;;;;;;10123925;29;20927;-85
2022/05/23 22:57:17;;;;;;;14.00;9.87;;;;;;;;;;10123845;29;20910;-86
2022/05/23 23:02:19;;;;;;;15.10;10.25;;;;;;;;;;10124648;29;20984;-86
2022/05/23 23:07:22;;;;;;;13.55;10.55;;;;;;;;;;10125805;29;20420;-86
2022/05/23 23:12:25;;;;;;;13.85;10.52;;;;;;;;;;10125365;29;20441;-86
2022/05/23 23:17:27;;;;;;;12.45;10.60;;;;;;;;;;10125518;29;20421;-86
2022/05/23 23:22:29;;;;;;;13.05;11.32;;;;;;;;;;10125428;29;20790;-86
2022/05/23 23:27:33;;;;;;;13.55;11.15;;;;;;;;;;10124633;29;20991;-86
2022/05/23 23:32:35;;;;;;;17.30;12.18;;;;;;;;;;10124367;29;20417;-85
2022/05/23 23:37:52;;;;;;;16.05;12.40;;;;;;;;;;10114467;29;20424;-85
2022/05/23 23:42:55;;;;;;;17.23;12.75;;;;;;;;;;10122920;29;20457;-85
2022/05/23 23:48:00;;;;;;;16.53;13.10;;;;;;;;;;10122344;29;20823;-86
2022/05/23 23:53:02;;;;;;;14.45;12.43;;;;;;;;;;10123694;29;20429;-86
2022/05/23 23:58:05;;;;;;;16.40;13.38;;;;;;;;;;10122612;29;20418;-85
